Time;durP1;ratioP1;P1;durP2;ratioP2;P2;SDS_P1;SDS_P2;PMS_P1;PMS_P2;Temp;Humidity;BMP_temperature;BMP_pressure;BME280_temperature;BME280_humidity;BME280_pressure;Samples;Min_cycle;Max_cycle;Signal;HPM_P1;HPM_P2
2021/12/27 00:01:15;;;;;;;;;;;;;;;-8.81;100.00;100517.91;5012673;28;1010;-72
2021/12/27 00:03:41;;;;;;;;;;;;;;;-8.90;100.00;100507.41;5012567;28;935;-73
2021/12/27 00:06:09;;;;;;;;;;;;;;;-8.86;100.00;100514.41;5012276;28;978;-71
2021/12/27 00:08:39;;;;;;;;;;;;;;;-8.85;100.00;100510.91;5011200;28;1361;-74
2021/12/27 00:11:05;;;;;;;;;;;;;;;-8.85;100.00;100510.03;5012243;28;1922;-74
2021/12/27 00:13:31;;;;;;;;;;;;;;;-8.88;100.00;100502.13;5012502;28;884;-72
2021/12/27 00:15:57;;;;;;;;;;;;;;;-8.92;100.00;100498.66;5011920;28;991;-72
2021/12/27 00:18:25;;;;;;;;;;;;;;;-8.88;100.00;100488.97;5012336;28;1294;-71
2021/12/27 00:20:51;;;;;;;;;;;;;;;-8.87;100.00;100490.75;5012194;28;1033;-74
2021/12/27 00:23:18;;;;;;;;;;;;;;;-8.85;100.00;100483.72;5012102;28;1043;-74
2021/12/27 00:25:44;;;;;;;;;;;;;;;-8.81;100.00;100483.69;5011982;28;852;-74
2021/12/27 00:28:10;;;;;;;;;;;;;;;-8.83;100.00;100488.09;5011814;28;1396;-74
2021/12/27 00:30:38;;;;;;;;;;;;;;;-8.80;100.00;100481.94;5010935;28;1915;-73
2021/12/27 00:33:04;;;;;;;;;;;;;;;-8.82;100.00;100483.69;5012005;28;1085;-71
2021/12/27 00:35:32;;;;;;;;;;;;;;;-8.81;100.00;100488.09;5012095;28;999;-73
2021/12/27 00:37:58;;;;;;;;;;;;;;;-8.85;100.00;100484.59;5011006;28;1316;-71
2021/12/27 00:40:25;;;;;;;;;;;;;;;-8.82;100.00;100478.44;5012088;28;1026;-72
2021/12/27 00:42:51;;;;;;;;;;;;;;;-8.88;100.00;100473.19;5010709;28;1264;-74
2021/12/27 00:45:20;;;;;;;;;;;;;;;-8.88;100.00;100462.69;5011925;28;951;-74
2021/12/27 00:47:46;;;;;;;;;;;;;;;-8.90;100.00;100467.94;5011559;28;1295;-73
2021/12/27 00:50:12;;;;;;;;;;;;;;;-8.95;100.00;100462.72;5011785;28;1069;-72
2021/12/27 00:52:40;;;;;;;;;;;;;;;-8.83;100.00;100466.16;5011702;28;1914;-71
2021/12/27 00:55:08;;;;;;;;;;;;;;;-8.78;100.00;100470.53;5011674;28;919;-73
2021/12/27 00:57:34;;;;;;;;;;;;;;;-8.74;100.00;100471.38;5011472;28;1302;-74
2021/12/27 01:00:01;;;;;;;;;;;;;;;-8.77;100.00;100466.13;5011765;28;809;-73
2021/12/27 01:02:27;;;;;;;;;;;;;;;-8.78;100.00;100467.91;5011720;28;958;-73
2021/12/27 01:04:54;;;;;;;;;;;;;;;-8.76;100.00;100460.84;5011620;28;994;-74
2021/12/27 01:07:20;;;;;;;;;;;;;;;-8.77;100.00;100461.72;5011422;28;1322;-73
2021/12/27 01:10:02;;;;;;;;;;;;;;;-8.74;100.00;100460.84;5011796;28;848;-72
2021/12/27 01:12:34;;;;;;;;;;;;;;;-8.75;100.00;100462.59;5011662;28;1990;-72
2021/12/27 01:15:32;;;;;;;;;;;;;;;-8.82;100.00;100463.50;5010312;28;883;-71
2021/12/27 01:17:57;;;;;;;;;;;;;;;-8.89;100.00;100458.31;5011097;28;1421;-72
2021/12/27 01:20:24;;;;;;;;;;;;;;;-8.88;100.00;100463.56;5010387;28;874;-72
2021/12/27 01:22:51;;;;;;;;;;;;;;;-8.93;100.00;100460.09;5011477;28;999;-71
2021/12/27 01:25:19;;;;;;;;;;;;;;;-8.93;100.00;100454.81;5010334;28;773;-73
2021/12/27 01:27:45;;;;;;;;;;;;;;;-8.90;100.00;100451.31;5010831;28;1971;-71
2021/12/27 01:30:15;;;;;;;;;;;;;;;-8.92;100.00;100449.53;5011450;28;1073;-73
2021/12/27 01:32:46;;;;;;;;;;;;;;;-8.91;100.00;100453.06;5011545;28;1914;-71
2021/12/27 01:35:13;;;;;;;;;;;;;;;-8.92;100.00;100446.91;5011465;28;1084;-72
2021/12/27 01:37:39;;;;;;;;;;;;;;;-8.92;100.00;100441.66;5029141;23;3579;-76
2021/12/27 01:40:10;;;;;;;;;;;;;;;-8.94;100.00;100451.34;5051176;28;781;-75
2021/12/27 01:42:38;;;;;;;;;;;;;;;-8.96;100.00;100442.56;5050386;28;974;-75
2021/12/27 01:45:04;;;;;;;;;;;;;;;-8.97;100.00;100448.69;5033158;28;1002;-74
2021/12/27 01:47:31;;;;;;;;;;;;;;;-9.00;100.00;100442.59;5035064;28;1394;-75
2021/12/27 01:49:58;;;;;;;;;;;;;;;-9.04;100.00;100441.72;5054269;28;1417;-76
2021/12/27 01:52:25;;;;;;;;;;;;;;;-9.04;100.00;100440.88;5074654;28;1910;-75
2021/12/27 01:54:51;;;;;;;;;;;;;;;-9.08;100.00;100447.88;5074934;28;798;-76
2021/12/27 01:57:17;;;;;;;;;;;;;;;-9.13;100.00;100447.03;5056368;28;1355;-75
2021/12/27 01:59:45;;;;;;;;;;;;;;;-9.17;100.00;100448.81;5056706;28;891;-75
2021/12/27 02:02:12;;;;;;;;;;;;;;;-9.16;100.00;100445.28;5056688;28;1144;-76
2021/12/27 02:04:38;;;;;;;;;;;;;;;-9.20;100.00;100437.44;5074623;28;994;-76
2021/12/27 02:07:04;;;;;;;;;;;;;;;-9.20;100.00;100434.81;5074278;28;772;-74
2021/12/27 02:09:42;;;;;;;;;;;;;;;-9.23;100.00;100430.44;5074211;28;1292;-76
2021/12/27 02:12:09;;;;;;;;;;;;;;;-9.23;100.00;100422.56;5056473;28;1910;-75
2021/12/27 02:14:35;;;;;;;;;;;;;;;-9.21;100.00;100418.13;5056366;28;1349;-74
2021/12/27 02:17:03;;;;;;;;;;;;;;;-9.19;100.00;100408.50;5074079;28;1018;-74
2021/12/27 02:19:29;;;;;;;;;;;;;;;-9.19;100.00;100411.13;5058589;28;1286;-75
2021/12/27 02:21:58;;;;;;;;;;;;;;;-9.20;100.00;100411.16;5074387;28;883;-75
2021/12/27 02:24:24;;;;;;;;;;;;;;;-9.22;100.00;100405.00;5056157;28;951;-75
2021/12/27 02:26:51;;;;;;;;;;;;;;;-9.20;100.00;100405.88;5073769;28;1045;-76
2021/12/27 02:29:17;;;;;;;;;;;;;;;-9.19;100.00;100395.34;5073964;28;1339;-75
2021/12/27 02:31:44;;;;;;;;;;;;;;;-9.15;100.00;100391.81;5073814;28;1973;-73
2021/12/27 02:34:11;;;;;;;;;;;;;;;-9.12;100.00;100385.66;5073954;28;1025;-75
2021/12/27 02:36:37;;;;;;;;;;;;;;;-9.06;100.00;100375.09;5055698;28;986;-75
2021/12/27 02:39:05;;;;;;;;;;;;;;;-9.01;100.00;100375.94;5073872;28;1310;-75
2021/12/27 02:41:31;;;;;;;;;;;;;;;-8.96;100.00;100368.91;5073746;28;1010;-75
2021/12/27 02:43:57;;;;;;;;;;;;;;;-8.93;100.00;100366.22;5056425;28;1564;-74
2021/12/27 02:46:23;;;;;;;;;;;;;;;-8.89;100.00;100368.88;5055829;28;812;-75
2021/12/27 02:48:50;;;;;;;;;;;;;;;-8.85;100.00;100365.31;5055733;28;1275;-74
2021/12/27 02:51:18;;;;;;;;;;;;;;;-8.79;100.00;100362.63;5073466;28;1969;-74
2021/12/27 02:53:45;;;;;;;;;;;;;;;-8.75;100.00;100365.25;5055670;28;1164;-74
2021/12/27 02:56:12;;;;;;;;;;;;;;;-8.72;100.00;100355.56;5073224;28;962;-74
2021/12/27 02:58:39;;;;;;;;;;;;;;;-8.73;100.00;100370.47;5073441;28;1300;-75
2021/12/27 03:01:06;;;;;;;;;;;;;;;-8.75;100.00;100362.59;5073116;28;1072;-75
2021/12/27 03:03:33;;;;;;;;;;;;;;;-8.79;100.00;100368.78;5073415;28;1046;-74
2021/12/27 03:05:59;;;;;;;;;;;;;;;-8.76;100.00;100360.00;5073126;28;812;-75
2021/12/27 03:08:26;;;;;;;;;;;;;;;-8.77;100.00;100345.06;5055448;28;1389;-75
2021/12/27 03:10:54;;;;;;;;;;;;;;;-8.79;100.00;100352.09;5073356;28;792;-75
2021/12/27 03:13:24;;;;;;;;;;;;;;;-8.80;100.00;100356.50;5073001;28;1975;-76
2021/12/27 03:15:51;;;;;;;;;;;;;;;-8.82;100.00;100349.50;5072903;28;1002;-76
2021/12/27 03:18:17;;;;;;;;;;;;;;;-8.81;100.00;100338.09;5072921;28;1320;-74
2021/12/27 03:20:44;;;;;;;;;;;;;;;-8.84;100.00;100348.66;5050349;28;2012;-76
2021/12/27 03:23:10;;;;;;;;;;;;;;;-8.87;100.00;100348.66;5054870;28;1213;-76
2021/12/27 03:25:36;;;;;;;;;;;;;;;-8.90;100.00;100338.16;5072744;28;1241;-74
2021/12/27 03:28:03;;;;;;;;;;;;;;;-8.90;100.00;100348.69;5072482;28;1306;-74
2021/12/27 03:30:31;;;;;;;;;;;;;;;-8.93;100.00;100345.19;5072651;28;986;-76
2021/12/27 03:32:57;;;;;;;;;;;;;;;-8.93;100.00;100334.66;5054707;28;1918;-75
2021/12/27 03:35:28;;;;;;;;;;;;;;;-8.97;100.00;100338.19;5071095;28;1538;-75
2021/12/27 03:37:56;;;;;;;;;;;;;;;-8.96;100.00;100334.69;5052493;28;1499;-75
2021/12/27 03:40:23;;;;;;;;;;;;;;;-8.96;100.00;100326.81;5072563;28;915;-75
2021/12/27 03:42:50;;;;;;;;;;;;;;;-8.97;100.00;100326.81;5072593;28;1054;-74
2021/12/27 03:45:19;;;;;;;;;;;;;;;-8.96;100.00;100331.19;5072427;28;924;-74
2021/12/27 03:47:46;;;;;;;;;;;;;;;-8.95;100.00;100327.66;5054096;28;1306;-76
2021/12/27 03:50:13;;;;;;;;;;;;;;;-8.97;100.00;100319.78;5072448;28;804;-75
2021/12/27 03:52:39;;;;;;;;;;;;;;;-8.95;100.00;100325.03;5054271;28;1973;-75
2021/12/27 03:55:06;;;;;;;;;;;;;;;-9.00;100.00;100330.34;5072309;28;798;-74
2021/12/27 03:57:35;;;;;;;;;;;;;;;-8.97;100.00;100325.03;5054038;28;1341;-75
2021/12/27 04:00:26;;;;;;;;;;;;;;;-8.95;100.00;100327.66;5072235;28;994;-76
2021/12/27 04:02:54;;;;;;;;;;;;;;;-8.94;100.00;100311.88;5072193;28;1002;-76
2021/12/27 04:05:21;;;;;;;;;;;;;;;-8.92;100.00;100309.25;5071853;28;722;-76
2021/12/27 04:07:55;;;;;;;;;;;;;;;-8.88;100.00;100303.06;5037050;28;1373;-74
2021/12/27 04:10:22;;;;;;;;;;;;;;;-8.85;100.00;100304.81;5071966;28;903;-74
2021/12/27 04:12:48;;;;;;;;;;;;;;;-8.83;100.00;100303.91;5071203;28;1998;-74
2021/12/27 04:15:14;;;;;;;;;;;;;;;-8.83;100.00;100303.91;5054064;28;911;-75
2021/12/27 04:17:41;;;;;;;;;;;;;;;-8.81;100.00;100285.47;5071396;28;1322;-74
2021/12/27 04:20:09;;;;;;;;;;;;;;;-8.77;100.00;100281.91;5054052;28;797;-74
2021/12/27 04:22:35;;;;;;;;;;;;;;;-8.76;100.00;100283.69;5071646;28;994;-72
2021/12/27 04:25:01;;;;;;;;;;;;;;;-8.73;100.00;100291.53;5071729;28;796;-73
2021/12/27 04:27:28;;;;;;;;;;;;;;;-8.71;100.00;100288.88;5071216;28;1459;-74
2021/12/27 04:29:54;;;;;;;;;;;;;;;-8.69;100.00;100287.13;5071874;28;789;-74
2021/12/27 04:32:21;;;;;;;;;;;;;;;-8.67;100.00;100285.31;5071381;28;1915;-73
2021/12/27 04:34:47;;;;;;;;;;;;;;;-8.64;100.00;100285.31;5053813;28;796;-74
2021/12/27 04:37:14;;;;;;;;;;;;;;;-8.62;100.00;100279.16;5053305;28;951;-74
2021/12/27 04:39:41;;;;;;;;;;;;;;;-8.60;100.00;100279.13;5071516;28;833;-73
2021/12/27 04:42:08;;;;;;;;;;;;;;;-8.60;100.00;100282.63;5053522;28;1131;-74
2021/12/27 04:44:34;;;;;;;;;;;;;;;-8.62;100.00;100275.63;5053531;28;800;-72
2021/12/27 04:47:00;;;;;;;;;;;;;;;-8.61;100.00;100275.63;5071448;28;1021;-75
2021/12/27 04:49:27;;;;;;;;;;;;;;;-8.61;100.00;100275.63;5071349;28;1301;-74
2021/12/27 04:51:53;;;;;;;;;;;;;;;-8.57;100.00;100273.84;5071747;28;1967;-74
2021/12/27 04:54:21;;;;;;;;;;;;;;;-8.52;100.00;100273.78;5056511;28;1645;-75
2021/12/27 04:56:47;;;;;;;;;;;;;;;-8.46;100.00;100265.81;5053715;28;855;-73
2021/12/27 04:59:13;;;;;;;;;;;;;;;-8.44;100.00;100274.56;5053320;28;1298;-75
2021/12/27 05:01:40;;;;;;;;;;;;;;;-8.43;100.00;100271.00;5071390;28;1033;-74
2021/12/27 05:04:06;;;;;;;;;;;;;;;-8.38;100.00;100263.09;5053353;28;1178;-73
2021/12/27 05:06:32;;;;;;;;;;;;;;;-8.37;100.00;100267.47;5053127;28;1170;-73
2021/12/27 05:08:59;;;;;;;;;;;;;;;-8.38;100.00;100266.56;5071611;28;1299;-73
2021/12/27 05:11:26;;;;;;;;;;;;;;;-8.35;100.00;100263.94;5053180;28;1169;-73
2021/12/27 05:13:53;;;;;;;;;;;;;;;-8.34;100.00;100273.53;5053214;28;1993;-75
2021/12/27 05:16:19;;;;;;;;;;;;;;;-8.35;100.00;100258.66;5071049;28;1046;-74
2021/12/27 05:18:45;;;;;;;;;;;;;;;-8.36;100.00;100253.38;5071003;28;1420;-75
2021/12/27 05:21:11;;;;;;;;;;;;;;;-8.40;100.00;100249.94;5053701;28;800;-74
2021/12/27 05:23:38;;;;;;;;;;;;;;;-8.41;100.00;100246.41;5053959;28;1463;-73
2021/12/27 05:26:04;;;;;;;;;;;;;;;-8.42;100.00;100251.69;5057359;28;1053;-76
2021/12/27 05:28:31;;;;;;;;;;;;;;;-8.40;100.00;100255.19;5075583;28;1312;-76
2021/12/27 05:30:58;;;;;;;;;;;;;;;-8.40;100.00;100255.19;5075331;28;954;-73
2021/12/27 05:33:24;;;;;;;;;;;;;;;-8.38;100.00;100248.13;5056946;28;1985;-75
2021/12/27 05:35:50;;;;;;;;;;;;;;;-8.42;100.00;100239.44;5057015;28;804;-74
2021/12/27 05:38:17;;;;;;;;;;;;;;;-8.38;100.00;100250.78;5053603;28;1535;-74
2021/12/27 05:40:43;;;;;;;;;;;;;;;-8.38;100.00;100249.91;5055942;28;907;-75
2021/12/27 05:43:09;;;;;;;;;;;;;;;-8.40;100.00;100257.84;5074807;28;1049;-74
2021/12/27 05:45:37;;;;;;;;;;;;;;;-8.44;100.00;100259.63;5074600;28;1006;-74
2021/12/27 05:48:04;;;;;;;;;;;;;;;-8.45;100.00;100243.88;5074369;28;1340;-73
2021/12/27 05:50:31;;;;;;;;;;;;;;;-8.41;100.00;100256.09;5055349;28;1413;-75
2021/12/27 05:52:57;;;;;;;;;;;;;;;-8.37;100.00;100244.63;5023263;28;1918;-75
2021/12/27 05:55:24;;;;;;;;;;;;;;;-8.38;100.00;100236.75;5061078;28;1164;-74
2021/12/27 05:57:50;;;;;;;;;;;;;;;-8.41;100.00;100241.16;5059941;28;1407;-74
2021/12/27 06:00:17;;;;;;;;;;;;;;;-8.42;100.00;100236.78;5054739;28;1608;-74
2021/12/27 06:02:45;;;;;;;;;;;;;;;-8.43;100.00;100234.16;5056033;28;1498;-74
2021/12/27 06:05:12;;;;;;;;;;;;;;;-8.45;100.00;100231.53;5073822;28;1501;-75
2021/12/27 06:07:39;;;;;;;;;;;;;;;-8.42;100.00;100230.63;5051226;28;1614;-73
2021/12/27 06:10:05;;;;;;;;;;;;;;;-8.43;100.00;100226.25;5054047;28;792;-74
2021/12/27 06:12:33;;;;;;;;;;;;;;;-8.40;100.00;100223.59;5044765;28;1914;-75
2021/12/27 06:14:59;;;;;;;;;;;;;;;-8.36;100.00;100224.41;5074447;28;804;-74
2021/12/27 06:17:26;;;;;;;;;;;;;;;-8.35;100.00;100220.91;5048305;28;1485;-74
2021/12/27 06:19:53;;;;;;;;;;;;;;;-8.32;100.00;100208.59;5036543;28;1047;-74
2021/12/27 06:22:20;;;;;;;;;;;;;;;-8.29;100.00;100215.56;5060681;28;1489;-76
2021/12/27 06:24:46;;;;;;;;;;;;;;;-8.29;100.00;100219.06;5044179;28;1758;-76
2021/12/27 06:27:12;;;;;;;;;;;;;;;-8.26;100.00;100216.41;5048142;28;1580;-75
2021/12/27 06:29:39;;;;;;;;;;;;;;;-8.21;100.00;100213.72;5047136;28;1568;-74
2021/12/27 06:32:05;;;;;;;;;;;;;;;-8.18;100.00;100203.13;5054849;28;1589;-76
2021/12/27 06:34:31;;;;;;;;;;;;;;;-8.13;100.00;100198.69;5073739;28;1902;-75
2021/12/27 06:36:59;;;;;;;;;;;;;;;-8.09;100.00;100202.16;5053536;28;1545;-74
2021/12/27 06:39:25;;;;;;;;;;;;;;;-8.04;100.00;100205.59;5054346;28;1584;-74
2021/12/27 06:41:52;;;;;;;;;;;;;;;-7.98;100.00;100204.66;5065677;28;974;-76
2021/12/27 06:44:18;;;;;;;;;;;;;;;-7.92;100.00;100205.44;5065600;28;1148;-76
2021/12/27 06:46:44;;;;;;;;;;;;;;;-7.83;100.00;100212.34;5054466;28;1002;-76
2021/12/27 06:49:10;;;;;;;;;;;;;;;-7.78;100.00;100212.28;5053957;28;1413;-75
2021/12/27 06:51:37;;;;;;;;;;;;;;;-7.78;100.00;100202.59;5072877;28;1017;-76
2021/12/27 06:54:05;;;;;;;;;;;;;;;-7.77;100.00;100211.38;5080039;28;1918;-79
2021/12/27 06:56:31;;;;;;;;;;;;;;;-7.71;100.00;100210.41;5059088;28;1438;-76
2021/12/27 06:58:59;;;;;;;;;;;;;;;-7.70;100.00;100206.91;5039822;28;1381;-76
2021/12/27 07:01:25;;;;;;;;;;;;;;;-7.69;100.00;100220.06;5068561;28;1314;-79
2021/12/27 07:03:51;;;;;;;;;;;;;;;-7.67;100.00;100207.75;5056118;28;1490;-80
2021/12/27 07:06:17;;;;;;;;;;;;;;;-7.63;100.00;100203.25;5069547;28;1406;-77
2021/12/27 07:08:47;;;;;;;;;;;;;;;-7.64;100.00;100205.03;5090981;28;1332;-80
2021/12/27 07:11:15;;;;;;;;;;;;;;;-7.62;100.00;100208.50;5059518;28;1572;-77
2021/12/27 07:13:41;;;;;;;;;;;;;;;-7.57;100.00;100206.69;5057229;28;1977;-79
2021/12/27 07:16:07;;;;;;;;;;;;;;;-7.56;100.00;100207.56;5050325;28;1327;-78
2021/12/27 07:18:33;;;;;;;;;;;;;;;-7.51;100.00;100204.84;5068815;28;1369;-78
2021/12/27 07:21:00;;;;;;;;;;;;;;;-7.46;100.00;100206.50;5063681;28;1164;-79
2021/12/27 07:23:26;;;;;;;;;;;;;;;-7.49;100.00;100211.84;5045949;28;1502;-79
2021/12/27 07:25:52;;;;;;;;;;;;;;;-7.41;100.00;100215.22;5068583;28;1560;-79
2021/12/27 07:28:20;;;;;;;;;;;;;;;-7.42;100.00;100209.97;5068331;28;1668;-79
2021/12/27 07:30:46;;;;;;;;;;;;;;;-7.37;100.00;100212.56;5057187;28;1029;-77
2021/12/27 07:33:13;;;;;;;;;;;;;;;-7.34;100.00;100208.09;5073638;28;1908;-77
2021/12/27 07:35:39;;;;;;;;;;;;;;;-7.35;100.00;100211.63;5071437;28;1638;-78
2021/12/27 07:38:06;;;;;;;;;;;;;;;-7.34;100.00;100210.72;5061114;28;1560;-77
2021/12/27 07:40:32;;;;;;;;;;;;;;;-7.32;100.00;100214.22;5071067;23;3673;-74
2021/12/27 07:42:59;;;;;;;;;;;;;;;-7.26;100.00;100213.25;5031513;28;1355;-73
2021/12/27 07:45:27;;;;;;;;;;;;;;;-7.22;100.00;100214.94;5031764;28;1549;-74
2021/12/27 07:47:53;;;;;;;;;;;;;;;-7.13;100.00;100212.16;5014391;28;1502;-74
2021/12/27 07:50:20;;;;;;;;;;;;;;;-7.09;100.00;100202.44;5014636;28;1334;-75
2021/12/27 07:52:46;;;;;;;;;;;;;;;-7.03;100.00;100204.09;5031667;28;1264;-74
2021/12/27 07:55:12;;;;;;;;;;;;;;;-7.02;100.00;100211.09;5013534;28;1918;-75
2021/12/27 07:57:39;;;;;;;;;;;;;;;-7.04;100.00;100207.59;5031566;28;1522;-74
2021/12/27 08:00:06;;;;;;;;;;;;;;;-7.03;100.00;100214.63;5027633;28;1458;-73
2021/12/27 08:02:37;;;;;;;;;;;;;;;-7.05;100.00;100209.38;5034599;28;1356;-78
2021/12/27 08:05:03;;;;;;;;;;;;;;;-7.00;100.00;100204.91;5046709;28;1502;-78
2021/12/27 08:07:30;;;;;;;;;;;;;;;-7.00;100.00;100196.09;5031820;28;1093;-76
2021/12/27 08:09:56;;;;;;;;;;;;;;;-6.93;100.00;100203.88;5032736;28;1408;-77
2021/12/27 08:12:22;;;;;;;;;;;;;;;-6.86;100.00;100201.16;5024483;28;1494;-75
2021/12/27 08:14:49;;;;;;;;;;;;;;;-6.79;100.00;100203.63;5033904;28;1923;-76
2021/12/27 08:17:15;;;;;;;;;;;;;;;-6.82;100.00;100201.06;5035533;28;1466;-75
2021/12/27 08:19:42;;;;;;;;;;;;;;;-6.80;100.00;100206.31;5010942;28;1420;-75
2021/12/27 08:22:09;;;;;;;;;;;;;;;-6.79;100.00;100200.13;5031401;28;1502;-75
2021/12/27 08:24:35;;;;;;;;;;;;;;;-6.80;100.00;100201.91;5030857;28;1558;-76
2021/12/27 08:27:02;;;;;;;;;;;;;;;-6.81;100.00;100194.03;5018048;28;1577;-79
2021/12/27 08:29:29;;;;;;;;;;;;;;;-6.78;100.00;100209.78;5030953;28;1390;-76
2021/12/27 08:31:55;;;;;;;;;;;;;;;-6.76;100.00;100203.59;5013855;28;1213;-77
2021/12/27 08:34:21;;;;;;;;;;;;;;;-6.73;100.00;100202.66;5020912;28;1977;-75
2021/12/27 08:36:49;;;;;;;;;;;;;;;-6.73;100.00;100194.75;5013299;28;1525;-76
2021/12/27 08:39:15;;;;;;;;;;;;;;;-6.72;100.00;100196.47;5024257;28;1561;-76
2021/12/27 08:41:42;;;;;;;;;;;;;;;-6.70;100.00;100192.03;5031277;28;1670;-74
2021/12/27 08:44:08;;;;;;;;;;;;;;;-6.65;100.00;100184.06;5031054;28;1586;-73
2021/12/27 08:46:35;;;;;;;;;;;;;;;-6.66;100.00;100188.44;5029872;28;1533;-75
2021/12/27 08:49:01;;;;;;;;;;;;;;;-6.62;100.00;100183.97;5030895;28;1562;-76
2021/12/27 08:51:28;;;;;;;;;;;;;;;-6.63;100.00;100191.00;4999741;28;1407;-75
2021/12/27 08:53:55;;;;;;;;;;;;;;;-6.59;100.00;100186.56;5014316;28;1972;-76
2021/12/27 08:56:22;;;;;;;;;;;;;;;-6.56;100.00;100182.09;5029852;28;1170;-78
2021/12/27 08:58:48;;;;;;;;;;;;;;;-6.53;100.00;100186.44;5019926;28;1495;-74
2021/12/27 09:01:14;;;;;;;;;;;;;;;-6.53;100.00;100191.72;4994465;28;1468;-75
2021/12/27 09:03:40;;;;;;;;;;;;;;;-6.45;100.00;100192.44;5028955;28;1284;-75
2021/12/27 09:06:07;;;;;;;;;;;;;;;-6.45;100.00;100187.16;5026328;28;1007;-76
2021/12/27 09:08:33;;;;;;;;;;;;;;;-6.44;100.00;100191.56;5011562;28;1050;-76
2021/12/27 09:11:01;;;;;;;;;;;;;;;-6.41;100.00;100180.91;5029446;28;1412;-75
2021/12/27 09:13:28;;;;;;;;;;;;;;;-6.31;100.00;100173.66;5029873;28;1993;-77
2021/12/27 09:15:55;;;;;;;;;;;;;;;-6.28;100.00;100173.63;4996353;28;1389;-78
2021/12/27 09:18:21;;;;;;;;;;;;;;;-6.26;100.00;100163.88;5029140;28;1498;-75
2021/12/27 09:20:48;;;;;;;;;;;;;;;-6.15;100.00;100166.28;5028743;28;1710;-76
2021/12/27 09:23:14;;;;;;;;;;;;;;;-6.19;100.00;100169.91;5029810;28;1856;-75
2021/12/27 09:25:42;;;;;;;;;;;;;;;-6.14;100.00;100175.97;5012602;28;1010;-72
2021/12/27 09:28:10;;;;;;;;;;;;;;;-5.98;100.00;100175.63;5030662;28;975;-72
2021/12/27 09:30:36;;;;;;;;;;;;;;;-6.03;100.00;100170.44;5029892;28;1544;-77
2021/12/27 09:33:04;;;;;;;;;;;;;;;-6.03;100.00;100172.22;5030976;28;1042;-76
2021/12/27 09:35:30;;;;;;;;;;;;;;;-6.02;100.00;100171.31;5026967;28;1979;-74
2021/12/27 09:37:56;;;;;;;;;;;;;;;-5.99;100.00;100177.38;5030262;28;983;-73
2021/12/27 09:40:22;;;;;;;;;;;;;;;-5.97;100.00;100170.28;5030218;28;1389;-71
2021/12/27 09:42:49;;;;;;;;;;;;;;;-5.92;100.00;100173.69;5011836;28;1250;-74
2021/12/27 09:45:16;;;;;;;;;;;;;;;-5.89;100.00;100164.81;5030224;28;1590;-74
2021/12/27 09:47:44;;;;;;;;;;;;;;;-5.83;100.00;100164.66;5029127;28;792;-71
2021/12/27 09:50:12;;;;;;;;;;;;;;;-5.82;100.00;100147.06;5029981;28;1482;-72
2021/12/27 09:52:39;;;;;;;;;;;;;;;-5.78;100.00;100148.72;5030230;28;891;-72
2021/12/27 09:55:06;;;;;;;;;;;;;;;-5.74;100.00;100137.16;5012193;28;1919;-72
2021/12/27 09:57:33;;;;;;;;;;;;;;;-5.63;100.00;100147.47;5016774;28;1378;-75
2021/12/27 09:59:59;;;;;;;;;;;;;;;-5.52;100.00;100149.88;5010858;28;1346;-73
2021/12/27 10:02:27;;;;;;;;;;;;;;;-5.50;100.00;100151.56;5025392;28;1471;-75
2021/12/27 10:04:54;;;;;;;;;;;;;;;-5.33;100.00;100155.56;5012483;28;1161;-76
2021/12/27 10:07:21;;;;;;;;;;;;;;;-5.25;100.00;100149.19;5012027;28;1225;-75
2021/12/27 10:09:52;;;;;;;;;;;;;;;-5.16;100.00;100145.41;5030064;28;1383;-74
2021/12/27 10:12:19;;;;;;;;;;;;;;;-5.05;100.00;100135.44;5033508;28;1070;-75
2021/12/27 10:14:46;;;;;;;;;;;;;;;-5.00;100.00;100124.72;5033026;28;1972;-76
2021/12/27 10:17:12;;;;;;;;;;;;;;;-5.02;100.00;100129.19;5032382;28;1132;-73
2021/12/27 10:19:40;;;;;;;;;;;;;;;-5.10;100.00;100125.88;4999726;28;1415;-74
2021/12/27 10:22:10;;;;;;;;;;;;;;;-5.04;100.00;100125.72;5029753;28;1204;-76
2021/12/27 10:24:37;;;;;;;;;;;;;;;-5.00;100.00;100127.34;5027661;28;1307;-75
2021/12/27 10:27:04;;;;;;;;;;;;;;;-4.91;100.00;100121.81;5031236;28;1351;-74
2021/12/27 10:29:31;;;;;;;;;;;;;;;-4.98;100.00;100117.63;5014281;28;1330;-76
2021/12/27 10:32:04;;;;;;;;;;;;;;;-4.87;100.00;100110.22;5028013;28;1054;-76
2021/12/27 10:34:31;;;;;;;;;;;;;;;-4.89;100.00;100108.53;4996381;28;1915;-74
2021/12/27 10:37:01;;;;;;;;;;;;;;;-4.87;100.00;100093.47;5006801;28;983;-75
2021/12/27 10:39:29;;;;;;;;;;;;;;;-4.85;100.00;100104.91;5033122;28;1481;-73
2021/12/27 10:42:05;;;;;;;;;;;;;;;-4.78;100.00;100105.63;5032291;28;1439;-74
2021/12/27 10:44:34;;;;;;;;;;;;;;;-4.65;100.00;100103.47;5001760;28;1570;-71
2021/12/27 10:47:00;;;;;;;;;;;;;;;-4.66;100.00;100105.25;5031290;28;1507;-73
2021/12/27 10:49:44;;;;;;;;;;;;;;;-4.50;100.00;100092.44;5013570;28;1340;-74
2021/12/27 10:52:11;;;;;;;;;;;;;;;-4.48;100.00;100092.41;5023258;28;1320;-75
2021/12/27 10:54:38;;;;;;;;;;;;;;;-4.40;100.00;100085.94;5032627;28;1922;-77
2021/12/27 10:57:04;;;;;;;;;;;;;;;-4.32;100.00;100098.97;5032611;28;1049;-75
2021/12/27 10:59:31;;;;;;;;;;;;;;;-4.28;100.00;100078.56;5015050;28;1358;-74
2021/12/27 11:02:07;;;;;;;;;;;;;;;-4.28;100.00;100082.06;5032969;28;1058;-75
2021/12/27 11:04:33;;;;;;;;;;;;;;;-4.31;100.00;100076.00;5032703;28;1490;-77
2021/12/27 11:07:00;;;;;;;;;;;;;;;-4.26;100.00;100076.69;5032654;28;970;-75
2021/12/27 11:09:28;;;;;;;;;;;;;;;-4.31;100.00;100071.56;4998853;28;1407;-76
2021/12/27 11:11:54;;;;;;;;;;;;;;;-4.23;100.00;100073.97;5032528;28;1589;-75
2021/12/27 11:14:21;;;;;;;;;;;;;;;-4.15;100.00;100071.09;5031630;28;2090;-73
2021/12/27 11:16:47;;;;;;;;;;;;;;;-4.10;100.00;100069.16;5032383;28;887;-74
2021/12/27 11:19:13;;;;;;;;;;;;;;;-4.15;100.00;100055.19;5032733;28;899;-75
2021/12/27 11:21:41;;;;;;;;;;;;;;;-4.07;100.00;100059.31;5007245;28;1593;-76
2021/12/27 11:24:08;;;;;;;;;;;;;;;-3.93;100.00;100060.66;5024190;28;1386;-76
2021/12/27 11:26:37;;;;;;;;;;;;;;;-3.74;100.00;100058.28;5031027;28;1387;-75
2021/12/27 11:29:13;;;;;;;;;;;;;;;-3.60;100.00;100053.38;5028304;28;1278;-74
2021/12/27 11:31:40;;;;;;;;;;;;;;;-3.47;100.00;100045.88;5032113;28;1314;-76
2021/12/27 11:34:08;;;;;;;;;;;;;;;-3.40;100.00;100052.72;5032033;28;1922;-75
2021/12/27 11:36:35;;;;;;;;;;;;;;;-3.50;100.00;100053.06;5031503;28;1526;-75
2021/12/27 11:39:16;;;;;;;;;;;;;;;-3.44;100.00;100047.56;5001795;28;1347;-75
2021/12/27 11:41:44;;;;;;;;;;;;;;;-3.25;100.00;100048.66;5013958;28;1503;-74
2021/12/27 11:44:12;;;;;;;;;;;;;;;-3.26;100.00;100044.28;5032556;28;907;-76
2021/12/27 11:46:57;;;;;;;;;;;;;;;-3.23;100.00;100044.16;5027517;28;1340;-73
2021/12/27 11:49:37;;;;;;;;;;;;;;;-3.15;100.00;100045.66;5023407;28;1399;-74
2021/12/27 11:52:17;;;;;;;;;;;;;;;-3.18;100.00;100046.66;5014508;28;1613;-74
2021/12/27 11:54:49;;;;;;;;;;;;;;;-3.26;100.00;100041.63;5031854;28;1918;-75
2021/12/27 11:57:30;;;;;;;;;;;;;;;-3.24;100.00;100037.13;5031806;28;942;-74
2021/12/27 11:59:57;;;;;;;;;;;;;;;-3.25;100.00;100032.72;5030823;28;1606;-74
2021/12/27 12:02:25;;;;;;;;;;;;;;;-3.15;100.00;100035.06;5031501;28;1610;-74
2021/12/27 12:04:53;;;;;;;;;;;;;;;-3.09;100.00;100027.72;5031471;28;1356;-74
2021/12/27 12:07:34;;;;;;;;;;;;;;;-2.94;100.00;100031.66;5031405;28;1332;-75
2021/12/27 12:10:01;;;;;;;;;;;;;;;-2.91;100.00;100028.88;5030279;28;1540;-71
2021/12/27 12:12:28;;;;;;;;;;;;;;;-2.90;100.00;100029.72;5031320;28;946;-74
2021/12/27 12:14:55;;;;;;;;;;;;;;;-2.80;100.00;100027.63;5012615;28;1985;-74
2021/12/27 12:17:35;;;;;;;;;;;;;;;-2.72;100.00;100018.41;5030847;28;1529;-71
2021/12/27 12:20:02;;;;;;;;;;;;;;;-2.59;100.00;100008.19;5037258;28;1384;-71
2021/12/27 12:22:33;;;;;;;;;;;;;;;-2.55;100.00;100019.59;5012786;28;1185;-74
2021/12/27 12:25:20;;;;;;;;;;;;;;;-2.65;100.00;100008.41;5031500;28;1225;-72
2021/12/27 12:27:54;;;;;;;;;;;;;;;-2.70;100.00;100021.91;5023939;28;1561;-75
2021/12/27 12:30:21;;;;;;;;;;;;;;;-2.76;100.00;100014.16;4997261;28;1582;-75
2021/12/27 12:32:59;;;;;;;;;;;;;;;-2.80;100.00;100012.53;5013532;28;1090;-73
2021/12/27 12:35:39;;;;;;;;;;;;;;;-2.81;100.00;100010.78;5030640;28;1910;-75
2021/12/27 12:38:10;;;;;;;;;;;;;;;-2.82;100.00;100013.50;5030730;28;1494;-74
2021/12/27 12:40:36;;;;;;;;;;;;;;;-2.68;100.00;100000.56;5011923;28;1493;-72